• Join FlightAware (Why Join?)
  • Login
  • US Flag 
11:26AM EDT


 

Airport Tracker/Info


-or-


 

Live Flight TrackerFlight Track Log ✈ ASQ4663 ✈ 22-May-2013 ✈ KBTV - KEWR

Flight Track Log - Related Links

Times and Time Zones

All times are in EDT time to prevent confusion due to time zone crossing. See the ASQ4663 flight status page for this flight to view local times or setup timezone preferences in your user account.

Time Position Orientation Groundspeed Altitude Reporting Facility
EDT Latitude Longitude Course Direction KTS MPH feet Rate Location/Type
05:19PM 44.3717 -73.1400 196° South 235 270 4,900  Level Boston Center
05:20PM 44.3028 -73.1478 185° South 246 283 7,700 2,700 Climbing Boston Center
05:21PM 44.1981 -73.2505 190° South  Level FlightAware Approximate
05:21PM 44.2300 -73.1325 171° South 261 300 10,300  Level Boston Center
05:22PM 44.1292 -73.2677 190° South  Level FlightAware Approximate
05:22PM 44.1489 -73.1114 169° South 286 329 12,800  Level Boston Center
05:23PM 44.0606 -73.2858 196° South  Level FlightAware Approximate
05:23PM 44.0717 -73.1306 190° South 291 335 14,900  Level Boston Center
05:24PM 43.9934 -73.3127 196° South  Level FlightAware Approximate
05:24PM 43.9903 -73.1789 203° Southwest 307 353 16,000  Level Boston Center
05:25PM 43.9262 -73.3395 196° South  Level FlightAware Approximate
05:25PM 43.8961 -73.2325 202° Southwest 341 392 16,000  Level Boston Center
05:26PM 43.7978 -73.2858 201° Southwest 374 430 16,000  Level Boston Center
05:27PM 43.7056 -73.3361 202° Southwest 390 449 16,000  Level Boston Center
05:28PM 43.5969 -73.3947 201° Southwest 390 449 16,100  Climbing Boston Center
05:29PM 43.4983 -73.4475 201° Southwest 390 449 16,100  Level Boston Center
05:30PM 43.4189 -73.4919 202° Southwest 390 449 16,100  Level Boston Center
05:31PM 43.3036 -73.5528 201° Southwest 383 441 16,100  Level Boston Center
05:32PM 43.2094 -73.6053 202° Southwest 372 428 16,100 -60 Level Boston Center
05:33PM 43.1108 -73.6489 198° South 372 428 16,000 -60 Descending Boston Center
05:34PM 43.0125 -73.6922 198° South 372 428 16,000  Level Boston Center
05:35PM 42.9119 -73.7328 196° South 372 428 16,000  Level Boston Center
05:36PM 42.8239 -73.7761 200° South 372 428 16,000  Level Boston Center
05:37PM 42.7256 -73.8194 198° South 372 428 16,000  Level Boston Center
05:38PM 42.6269 -73.8622 198° South 372 428 16,000  Level Boston Center
05:39PM 42.5286 -73.9022 197° South 377 434 16,000  Level Boston Center
05:40PM 42.4194 -73.9503 198° South 377 434 16,000  Level Boston Center
05:41PM 42.3336 -73.9931 200° South 369 425 16,000  Level Boston Center
05:42PM 42.2286 -74.0356 197° South 364 419 16,000  Level Boston Center
05:43PM 42.1511 -74.0728 200° South 346 398 16,000 -300 Level Boston Center
05:44PM 42.0631 -74.1094 197° South 334 384 15,500 -1,200 Descending Boston Center
05:45PM 41.9747 -74.1492 198° South 316 364 13,700 -1,260 Descending Boston Center
05:46PM 41.9056 -74.1781 197° South 304 350 13,000 -600 Descending Boston Center
05:47PM 41.8194 -74.2175 199° South 304 350 12,600 -960 Descending Boston Center
05:48PM 41.7483 -74.2458 197° South 304 350 11,100 -1,680 Descending Boston Center
05:49PM 41.6686 -74.2797 198° South 298 343 9,300 -1,500 Descending Boston Center
05:50PM 41.6036 -74.2919 188° South 274 315 8,100 -660 Descending Boston Center
05:51PM 41.5242 -74.3172 193° South 268 308 8,000 -240 Descending Boston Center
05:53PM 41.3833 -74.3500 190° South 268 308 7,500 -360 Descending New York TRACON
05:54PM 41.3167 -74.3833 201° Southwest 258 297 7,100 -600 Descending New York TRACON
05:55PM 41.2500 -74.4167 201° Southwest 222 255 6,300 -900 Descending New York TRACON
05:56PM 41.1833 -74.4333 191° South 231 266 5,300 -600 Descending New York TRACON
05:57PM 41.1500 -74.3833 132° Southeast 226 260 5,100 -120 Descending New York TRACON
05:58PM 41.1167 -74.3167 124° Southeast 222 255 5,100  Level New York TRACON
05:59PM 41.0833 -74.2500 124° Southeast 200 230 5,100 -120 Level New York TRACON
06:00PM 41.0500 -74.2000 131° Southeast 198 228 4,900 -540 Descending New York TRACON
06:01PM 41.0000 -74.1667 153° Southeast 183 211 4,100 -420 Descending New York TRACON
06:02PM 40.9500 -74.1333 153° Southeast 176 203 4,100 -300 Level New York TRACON
06:03PM 40.9167 -74.0833 131° Southeast 185 213 3,500 -480 Descending New York TRACON
06:04PM 40.8833 -74.0667 159° South 157 181 3,100 -240 Descending New York TRACON
06:05PM 40.8333 -74.0667 180° South 148 170 3,100 -420 Level New York TRACON
06:06PM 40.8000 -74.1000 217° Southwest 151 174 2,300 -840 Descending New York TRACON